sensor_id;sensor_type;location;lat;lon;timestamp;P1;durP1;ratioP1;P2;durP2;ratioP2
3561;SDS011;1795;52.074;4.754;2022-08-19T00:01:22;8.63;;;4.35;;
3561;SDS011;1795;52.074;4.754;2022-08-19T00:03:57;4.90;;;4.40;;
3561;SDS011;1795;52.074;4.754;2022-08-19T00:06:25;4.88;;;4.35;;
3561;SDS011;1795;52.074;4.754;2022-08-19T00:08:54;4.10;;;3.70;;
3561;SDS011;1795;52.074;4.754;2022-08-19T00:11:23;5.60;;;4.40;;
3561;SDS011;1795;52.074;4.754;2022-08-19T00:13:53;5.97;;;4.20;;
3561;SDS011;1795;52.074;4.754;2022-08-19T00:16:23;5.35;;;3.92;;
3561;SDS011;1795;52.074;4.754;2022-08-19T00:18:52;8.00;;;4.60;;
3561;SDS011;1795;52.074;4.754;2022-08-19T00:21:23;5.88;;;4.50;;
3561;SDS011;1795;52.074;4.754;2022-08-19T00:23:52;4.30;;;3.90;;
3561;SDS011;1795;52.074;4.754;2022-08-19T00:26:21;6.27;;;5.23;;
3561;SDS011;1795;52.074;4.754;2022-08-19T00:28:50;5.93;;;4.75;;
3561;SDS011;1795;52.074;4.754;2022-08-19T00:31:19;6.22;;;4.50;;
3561;SDS011;1795;52.074;4.754;2022-08-19T00:33:47;5.45;;;4.22;;
3561;SDS011;1795;52.074;4.754;2022-08-19T00:36:16;6.93;;;4.75;;
3561;SDS011;1795;52.074;4.754;2022-08-19T00:38:46;6.85;;;4.53;;
3561;SDS011;1795;52.074;4.754;2022-08-19T00:41:15;5.32;;;4.82;;
3561;SDS011;1795;52.074;4.754;2022-08-19T00:43:56;5.03;;;4.60;;
3561;SDS011;1795;52.074;4.754;2022-08-19T00:46:25;5.13;;;3.95;;
3561;SDS011;1795;52.074;4.754;2022-08-19T00:48:53;4.85;;;4.45;;
3561;SDS011;1795;52.074;4.754;2022-08-19T00:51:23;4.93;;;4.00;;
3561;SDS011;1795;52.074;4.754;2022-08-19T00:53:54;7.70;;;4.22;;
3561;SDS011;1795;52.074;4.754;2022-08-19T00:56:24;6.35;;;4.53;;
3561;SDS011;1795;52.074;4.754;2022-08-19T00:58:53;5.80;;;5.00;;
3561;SDS011;1795;52.074;4.754;2022-08-19T01:01:23;4.88;;;4.35;;
3561;SDS011;1795;52.074;4.754;2022-08-19T01:03:52;4.80;;;3.90;;
3561;SDS011;1795;52.074;4.754;2022-08-19T01:06:23;5.38;;;4.40;;
3561;SDS011;1795;52.074;4.754;2022-08-19T01:08:54;7.80;;;4.50;;
3561;SDS011;1795;52.074;4.754;2022-08-19T01:11:22;6.43;;;4.72;;
3561;SDS011;1795;52.074;4.754;2022-08-19T01:13:50;7.38;;;4.43;;
3561;SDS011;1795;52.074;4.754;2022-08-19T01:16:21;5.30;;;4.18;;
3561;SDS011;1795;52.074;4.754;2022-08-19T01:18:52;6.07;;;4.23;;
3561;SDS011;1795;52.074;4.754;2022-08-19T01:21:22;7.33;;;4.90;;
3561;SDS011;1795;52.074;4.754;2022-08-19T01:23:56;8.05;;;4.25;;
3561;SDS011;1795;52.074;4.754;2022-08-19T01:26:24;5.80;;;4.10;;
3561;SDS011;1795;52.074;4.754;2022-08-19T01:28:55;5.00;;;4.50;;
3561;SDS011;1795;52.074;4.754;2022-08-19T01:31:27;4.93;;;4.43;;
3561;SDS011;1795;52.074;4.754;2022-08-19T01:33:58;7.15;;;4.50;;
3561;SDS011;1795;52.074;4.754;2022-08-19T01:36:28;6.68;;;4.80;;
3561;SDS011;1795;52.074;4.754;2022-08-19T01:39:00;6.75;;;4.80;;
3561;SDS011;1795;52.074;4.754;2022-08-19T01:41:30;7.90;;;4.78;;
3561;SDS011;1795;52.074;4.754;2022-08-19T01:43:58;6.85;;;4.47;;
3561;SDS011;1795;52.074;4.754;2022-08-19T01:46:44;6.00;;;4.50;;
3561;SDS011;1795;52.074;4.754;2022-08-19T01:49:14;6.70;;;4.30;;
3561;SDS011;1795;52.074;4.754;2022-08-19T01:51:44;4.63;;;4.20;;
3561;SDS011;1795;52.074;4.754;2022-08-19T01:54:14;6.30;;;4.80;;
3561;SDS011;1795;52.074;4.754;2022-08-19T01:56:54;7.32;;;5.43;;
3561;SDS011;1795;52.074;4.754;2022-08-19T01:59:25;5.35;;;4.80;;
3561;SDS011;1795;52.074;4.754;2022-08-19T02:01:53;11.00;;;5.90;;
3561;SDS011;1795;52.074;4.754;2022-08-19T02:04:21;6.90;;;5.55;;
3561;SDS011;1795;52.074;4.754;2022-08-19T02:06:51;7.53;;;5.60;;
3561;SDS011;1795;52.074;4.754;2022-08-19T02:09:20;6.80;;;5.67;;
3561;SDS011;1795;52.074;4.754;2022-08-19T02:11:48;7.40;;;5.60;;
3561;SDS011;1795;52.074;4.754;2022-08-19T02:14:16;12.13;;;6.00;;
3561;SDS011;1795;52.074;4.754;2022-08-19T02:16:44;8.10;;;5.93;;
3561;SDS011;1795;52.074;4.754;2022-08-19T02:19:12;9.33;;;6.37;;
3561;SDS011;1795;52.074;4.754;2022-08-19T02:21:40;7.63;;;6.53;;
3561;SDS011;1795;52.074;4.754;2022-08-19T02:24:09;8.98;;;6.30;;
3561;SDS011;1795;52.074;4.754;2022-08-19T02:26:39;10.00;;;6.60;;
3561;SDS011;1795;52.074;4.754;2022-08-19T02:29:07;8.67;;;6.50;;
3561;SDS011;1795;52.074;4.754;2022-08-19T02:31:35;9.40;;;7.10;;
3561;SDS011;1795;52.074;4.754;2022-08-19T02:34:03;10.15;;;6.72;;
3561;SDS011;1795;52.074;4.754;2022-08-19T02:36:31;9.93;;;6.78;;
3561;SDS011;1795;52.074;4.754;2022-08-19T02:38:59;10.30;;;7.03;;
3561;SDS011;1795;52.074;4.754;2022-08-19T02:41:27;8.10;;;7.30;;
3561;SDS011;1795;52.074;4.754;2022-08-19T02:43:59;11.20;;;8.40;;
3561;SDS011;1795;52.074;4.754;2022-08-19T02:46:48;10.05;;;7.60;;
3561;SDS011;1795;52.074;4.754;2022-08-19T02:49:17;13.68;;;8.25;;
3561;SDS011;1795;52.074;4.754;2022-08-19T02:51:46;10.63;;;8.20;;
3561;SDS011;1795;52.074;4.754;2022-08-19T02:54:14;10.20;;;8.43;;
3561;SDS011;1795;52.074;4.754;2022-08-19T02:56:42;10.43;;;8.00;;
3561;SDS011;1795;52.074;4.754;2022-08-19T02:59:13;11.43;;;7.32;;
3561;SDS011;1795;52.074;4.754;2022-08-19T03:01:41;9.10;;;7.30;;
3561;SDS011;1795;52.074;4.754;2022-08-19T03:04:10;14.00;;;9.05;;
3561;SDS011;1795;52.074;4.754;2022-08-19T03:06:44;14.25;;;8.50;;
3561;SDS011;1795;52.074;4.754;2022-08-19T03:09:13;9.00;;;7.97;;
3561;SDS011;1795;52.074;4.754;2022-08-19T03:11:42;9.80;;;7.70;;
3561;SDS011;1795;52.074;4.754;2022-08-19T03:14:11;11.45;;;8.57;;
3561;SDS011;1795;52.074;4.754;2022-08-19T03:16:41;11.52;;;9.10;;
3561;SDS011;1795;52.074;4.754;2022-08-19T03:19:11;11.98;;;8.70;;
3561;SDS011;1795;52.074;4.754;2022-08-19T03:21:39;14.38;;;10.00;;
3561;SDS011;1795;52.074;4.754;2022-08-19T03:24:10;9.37;;;7.83;;
3561;SDS011;1795;52.074;4.754;2022-08-19T03:26:39;11.82;;;9.75;;
3561;SDS011;1795;52.074;4.754;2022-08-19T03:29:07;13.35;;;9.70;;
3561;SDS011;1795;52.074;4.754;2022-08-19T03:31:39;15.23;;;11.40;;
3561;SDS011;1795;52.074;4.754;2022-08-19T03:34:19;18.67;;;12.32;;
3561;SDS011;1795;52.074;4.754;2022-08-19T03:36:52;15.52;;;11.00;;
3561;SDS011;1795;52.074;4.754;2022-08-19T03:39:21;17.35;;;12.45;;
3561;SDS011;1795;52.074;4.754;2022-08-19T03:41:51;17.67;;;12.63;;
3561;SDS011;1795;52.074;4.754;2022-08-19T03:44:39;15.20;;;12.35;;
3561;SDS011;1795;52.074;4.754;2022-08-19T03:47:09;19.15;;;12.73;;
3561;SDS011;1795;52.074;4.754;2022-08-19T03:49:41;16.05;;;12.43;;
3561;SDS011;1795;52.074;4.754;2022-08-19T03:52:10;16.40;;;12.63;;
3561;SDS011;1795;52.074;4.754;2022-08-19T03:54:38;20.65;;;14.70;;
3561;SDS011;1795;52.074;4.754;2022-08-19T03:57:06;21.58;;;14.82;;
3561;SDS011;1795;52.074;4.754;2022-08-19T03:59:35;22.88;;;16.25;;
3561;SDS011;1795;52.074;4.754;2022-08-19T04:02:06;21.85;;;13.80;;
3561;SDS011;1795;52.074;4.754;2022-08-19T04:04:38;18.50;;;14.10;;
3561;SDS011;1795;52.074;4.754;2022-08-19T04:07:09;19.27;;;13.18;;
3561;SDS011;1795;52.074;4.754;2022-08-19T04:09:39;21.10;;;14.18;;
3561;SDS011;1795;52.074;4.754;2022-08-19T04:12:07;19.02;;;14.15;;
3561;SDS011;1795;52.074;4.754;2022-08-19T04:14:36;19.92;;;14.13;;
3561;SDS011;1795;52.074;4.754;2022-08-19T04:17:04;25.27;;;16.02;;
3561;SDS011;1795;52.074;4.754;2022-08-19T04:19:32;22.20;;;15.38;;
3561;SDS011;1795;52.074;4.754;2022-08-19T04:22:02;21.23;;;15.57;;
3561;SDS011;1795;52.074;4.754;2022-08-19T04:24:31;23.92;;;16.48;;
3561;SDS011;1795;52.074;4.754;2022-08-19T04:27:02;23.42;;;16.63;;
3561;SDS011;1795;52.074;4.754;2022-08-19T04:29:32;24.92;;;17.30;;
3561;SDS011;1795;52.074;4.754;2022-08-19T04:32:00;26.80;;;17.85;;
3561;SDS011;1795;52.074;4.754;2022-08-19T04:34:34;24.73;;;17.42;;
3561;SDS011;1795;52.074;4.754;2022-08-19T04:37:24;25.50;;;17.80;;
3561;SDS011;1795;52.074;4.754;2022-08-19T04:39:57;26.42;;;17.80;;
3561;SDS011;1795;52.074;4.754;2022-08-19T04:42:42;29.63;;;19.70;;
3561;SDS011;1795;52.074;4.754;2022-08-19T04:45:11;29.38;;;19.08;;
3561;SDS011;1795;52.074;4.754;2022-08-19T04:47:43;23.20;;;16.77;;
3561;SDS011;1795;52.074;4.754;2022-08-19T04:50:23;23.33;;;18.77;;
3561;SDS011;1795;52.074;4.754;2022-08-19T04:52:53;29.37;;;18.23;;
3561;SDS011;1795;52.074;4.754;2022-08-19T04:55:23;31.35;;;19.80;;
3561;SDS011;1795;52.074;4.754;2022-08-19T04:57:52;30.17;;;19.43;;
3561;SDS011;1795;52.074;4.754;2022-08-19T05:00:21;28.67;;;19.65;;
3561;SDS011;1795;52.074;4.754;2022-08-19T05:02:49;31.17;;;20.67;;
3561;SDS011;1795;52.074;4.754;2022-08-19T05:05:17;32.40;;;21.40;;
3561;SDS011;1795;52.074;4.754;2022-08-19T05:07:46;35.03;;;23.05;;
3561;SDS011;1795;52.074;4.754;2022-08-19T05:10:15;39.15;;;24.20;;
3561;SDS011;1795;52.074;4.754;2022-08-19T05:12:43;35.08;;;22.83;;
3561;SDS011;1795;52.074;4.754;2022-08-19T05:15:11;42.00;;;24.33;;
3561;SDS011;1795;52.074;4.754;2022-08-19T05:17:39;45.15;;;25.90;;
3561;SDS011;1795;52.074;4.754;2022-08-19T05:20:28;42.00;;;26.95;;
3561;SDS011;1795;52.074;4.754;2022-08-19T05:23:14;45.92;;;27.05;;
3561;SDS011;1795;52.074;4.754;2022-08-19T05:25:49;45.38;;;25.80;;
3561;SDS011;1795;52.074;4.754;2022-08-19T05:28:17;52.30;;;28.77;;
3561;SDS011;1795;52.074;4.754;2022-08-19T05:30:46;49.38;;;27.90;;
3561;SDS011;1795;52.074;4.754;2022-08-19T05:33:16;55.63;;;28.23;;
3561;SDS011;1795;52.074;4.754;2022-08-19T05:35:44;48.35;;;29.38;;
3561;SDS011;1795;52.074;4.754;2022-08-19T05:38:14;54.63;;;30.15;;
3561;SDS011;1795;52.074;4.754;2022-08-19T05:40:43;50.42;;;28.50;;
3561;SDS011;1795;52.074;4.754;2022-08-19T05:43:14;48.42;;;28.27;;
3561;SDS011;1795;52.074;4.754;2022-08-19T05:45:43;56.77;;;31.33;;
3561;SDS011;1795;52.074;4.754;2022-08-19T05:48:11;53.25;;;30.55;;
3561;SDS011;1795;52.074;4.754;2022-08-19T05:50:41;58.53;;;29.95;;
3561;SDS011;1795;52.074;4.754;2022-08-19T05:53:11;50.23;;;28.43;;
3561;SDS011;1795;52.074;4.754;2022-08-19T05:55:40;53.30;;;30.10;;
3561;SDS011;1795;52.074;4.754;2022-08-19T05:58:08;53.58;;;29.05;;
3561;SDS011;1795;52.074;4.754;2022-08-19T06:00:38;56.10;;;29.65;;
3561;SDS011;1795;52.074;4.754;2022-08-19T06:03:07;51.25;;;29.17;;
3561;SDS011;1795;52.074;4.754;2022-08-19T06:05:38;59.10;;;29.30;;
3561;SDS011;1795;52.074;4.754;2022-08-19T06:08:17;57.15;;;30.10;;
3561;SDS011;1795;52.074;4.754;2022-08-19T06:10:58;52.65;;;29.35;;
3561;SDS011;1795;52.074;4.754;2022-08-19T06:13:39;54.67;;;28.23;;
3561;SDS011;1795;52.074;4.754;2022-08-19T06:16:09;50.72;;;28.08;;
3561;SDS011;1795;52.074;4.754;2022-08-19T06:18:37;48.77;;;27.73;;
3561;SDS011;1795;52.074;4.754;2022-08-19T06:21:05;48.40;;;26.23;;
3561;SDS011;1795;52.074;4.754;2022-08-19T06:23:33;47.88;;;26.85;;
3561;SDS011;1795;52.074;4.754;2022-08-19T06:26:01;47.30;;;27.52;;
3561;SDS011;1795;52.074;4.754;2022-08-19T06:28:30;44.80;;;27.53;;
3561;SDS011;1795;52.074;4.754;2022-08-19T06:30:59;47.58;;;28.20;;
3561;SDS011;1795;52.074;4.754;2022-08-19T06:33:34;49.75;;;29.65;;
3561;SDS011;1795;52.074;4.754;2022-08-19T06:36:04;51.63;;;30.80;;
3561;SDS011;1795;52.074;4.754;2022-08-19T06:38:32;44.75;;;27.70;;
3561;SDS011;1795;52.074;4.754;2022-08-19T06:41:01;47.20;;;28.05;;
3561;SDS011;1795;52.074;4.754;2022-08-19T06:43:33;48.17;;;28.50;;
3561;SDS011;1795;52.074;4.754;2022-08-19T06:46:09;45.60;;;27.90;;
3561;SDS011;1795;52.074;4.754;2022-08-19T06:48:41;46.17;;;27.42;;
3561;SDS011;1795;52.074;4.754;2022-08-19T06:51:11;50.90;;;30.48;;
3561;SDS011;1795;52.074;4.754;2022-08-19T06:53:44;48.38;;;27.80;;
3561;SDS011;1795;52.074;4.754;2022-08-19T06:56:14;45.55;;;28.30;;
3561;SDS011;1795;52.074;4.754;2022-08-19T06:58:42;54.90;;;30.70;;
3561;SDS011;1795;52.074;4.754;2022-08-19T07:01:12;53.67;;;31.20;;
3561;SDS011;1795;52.074;4.754;2022-08-19T07:03:41;51.85;;;29.80;;
3561;SDS011;1795;52.074;4.754;2022-08-19T07:06:10;45.53;;;28.45;;
3561;SDS011;1795;52.074;4.754;2022-08-19T07:09:01;41.78;;;25.95;;
3561;SDS011;1795;52.074;4.754;2022-08-19T07:11:30;47.55;;;26.92;;
3561;SDS011;1795;52.074;4.754;2022-08-19T07:13:59;40.65;;;26.88;;
3561;SDS011;1795;52.074;4.754;2022-08-19T07:16:28;42.45;;;27.00;;
3561;SDS011;1795;52.074;4.754;2022-08-19T07:18:58;46.38;;;27.08;;
3561;SDS011;1795;52.074;4.754;2022-08-19T07:21:41;45.63;;;26.42;;
3561;SDS011;1795;52.074;4.754;2022-08-19T07:24:09;40.30;;;25.35;;
3561;SDS011;1795;52.074;4.754;2022-08-19T07:26:39;42.38;;;26.20;;
3561;SDS011;1795;52.074;4.754;2022-08-19T07:29:10;43.70;;;26.35;;
3561;SDS011;1795;52.074;4.754;2022-08-19T07:31:39;45.35;;;26.77;;
3561;SDS011;1795;52.074;4.754;2022-08-19T07:34:12;41.65;;;25.40;;
3561;SDS011;1795;52.074;4.754;2022-08-19T07:36:42;43.03;;;25.10;;
3561;SDS011;1795;52.074;4.754;2022-08-19T07:39:13;36.22;;;23.45;;
3561;SDS011;1795;52.074;4.754;2022-08-19T07:41:42;39.45;;;25.42;;
3561;SDS011;1795;52.074;4.754;2022-08-19T07:44:11;33.67;;;21.93;;
3561;SDS011;1795;52.074;4.754;2022-08-19T07:46:41;32.90;;;22.08;;
3561;SDS011;1795;52.074;4.754;2022-08-19T07:49:16;38.95;;;22.38;;
3561;SDS011;1795;52.074;4.754;2022-08-19T07:51:46;30.40;;;21.70;;
3561;SDS011;1795;52.074;4.754;2022-08-19T07:54:16;36.90;;;21.10;;
3561;SDS011;1795;52.074;4.754;2022-08-19T07:56:44;27.08;;;19.40;;
3561;SDS011;1795;52.074;4.754;2022-08-19T07:59:12;31.30;;;20.48;;
3561;SDS011;1795;52.074;4.754;2022-08-19T08:01:41;30.37;;;19.70;;
3561;SDS011;1795;52.074;4.754;2022-08-19T08:04:09;32.17;;;19.23;;
3561;SDS011;1795;52.074;4.754;2022-08-19T08:07:08;25.90;;;18.20;;
3561;SDS011;1795;52.074;4.754;2022-08-19T08:09:57;29.73;;;19.45;;
3561;SDS011;1795;52.074;4.754;2022-08-19T08:12:30;29.38;;;18.50;;
3561;SDS011;1795;52.074;4.754;2022-08-19T08:15:01;27.48;;;18.55;;
3561;SDS011;1795;52.074;4.754;2022-08-19T08:17:33;25.08;;;17.67;;
3561;SDS011;1795;52.074;4.754;2022-08-19T08:20:15;24.58;;;18.23;;
3561;SDS011;1795;52.074;4.754;2022-08-19T08:22:45;23.10;;;17.48;;
3561;SDS011;1795;52.074;4.754;2022-08-19T08:25:31;29.48;;;19.55;;
3561;SDS011;1795;52.074;4.754;2022-08-19T08:28:01;28.98;;;18.10;;
3561;SDS011;1795;52.074;4.754;2022-08-19T08:30:30;28.55;;;19.15;;
3561;SDS011;1795;52.074;4.754;2022-08-19T08:33:02;20.20;;;17.52;;
3561;SDS011;1795;52.074;4.754;2022-08-19T08:35:31;27.70;;;17.42;;
3561;SDS011;1795;52.074;4.754;2022-08-19T08:38:01;27.70;;;17.88;;
3561;SDS011;1795;52.074;4.754;2022-08-19T08:40:30;25.40;;;18.77;;
3561;SDS011;1795;52.074;4.754;2022-08-19T08:43:06;25.70;;;18.35;;
3561;SDS011;1795;52.074;4.754;2022-08-19T08:45:38;28.38;;;17.70;;
3561;SDS011;1795;52.074;4.754;2022-08-19T08:48:20;26.77;;;18.08;;
3561;SDS011;1795;52.074;4.754;2022-08-19T08:50:53;23.13;;;16.80;;
3561;SDS011;1795;52.074;4.754;2022-08-19T08:53:25;25.25;;;16.45;;
3561;SDS011;1795;52.074;4.754;2022-08-19T08:55:58;25.92;;;16.20;;
3561;SDS011;1795;52.074;4.754;2022-08-19T08:58:32;22.10;;;16.02;;
3561;SDS011;1795;52.074;4.754;2022-08-19T09:01:09;20.65;;;15.05;;
3561;SDS011;1795;52.074;4.754;2022-08-19T09:03:39;24.27;;;15.13;;
3561;SDS011;1795;52.074;4.754;2022-08-19T09:06:11;23.40;;;16.63;;
3561;SDS011;1795;52.074;4.754;2022-08-19T09:08:47;23.00;;;16.53;;
3561;SDS011;1795;52.074;4.754;2022-08-19T09:11:23;22.17;;;15.13;;
3561;SDS011;1795;52.074;4.754;2022-08-19T09:14:10;24.17;;;16.23;;
3561;SDS011;1795;52.074;4.754;2022-08-19T09:17:08;18.10;;;15.35;;
3561;SDS011;1795;52.074;4.754;2022-08-19T09:19:46;21.48;;;17.15;;
3561;SDS011;1795;52.074;4.754;2022-08-19T09:22:19;25.43;;;16.97;;
3561;SDS011;1795;52.074;4.754;2022-08-19T09:24:54;107.65;;;24.48;;
3561;SDS011;1795;52.074;4.754;2022-08-19T09:27:22;31.33;;;21.63;;
3561;SDS011;1795;52.074;4.754;2022-08-19T09:30:09;33.08;;;20.42;;
3561;SDS011;1795;52.074;4.754;2022-08-19T09:32:41;36.57;;;20.17;;
3561;SDS011;1795;52.074;4.754;2022-08-19T09:35:09;35.43;;;19.80;;
3561;SDS011;1795;52.074;4.754;2022-08-19T09:37:38;30.52;;;18.27;;
3561;SDS011;1795;52.074;4.754;2022-08-19T09:40:10;28.33;;;19.90;;
3561;SDS011;1795;52.074;4.754;2022-08-19T09:42:40;31.17;;;18.77;;
3561;SDS011;1795;52.074;4.754;2022-08-19T09:45:16;26.42;;;17.95;;
3561;SDS011;1795;52.074;4.754;2022-08-19T09:47:47;32.80;;;18.65;;
3561;SDS011;1795;52.074;4.754;2022-08-19T09:50:15;22.40;;;17.70;;
3561;SDS011;1795;52.074;4.754;2022-08-19T09:52:44;22.98;;;17.13;;
3561;SDS011;1795;52.074;4.754;2022-08-19T09:55:23;22.43;;;17.27;;
3561;SDS011;1795;52.074;4.754;2022-08-19T09:57:58;23.60;;;16.40;;
3561;SDS011;1795;52.074;4.754;2022-08-19T10:00:27;24.55;;;16.33;;
3561;SDS011;1795;52.074;4.754;2022-08-19T10:02:56;19.50;;;16.43;;
3561;SDS011;1795;52.074;4.754;2022-08-19T10:05:24;23.70;;;16.90;;
3561;SDS011;1795;52.074;4.754;2022-08-19T10:08:13;23.83;;;16.50;;
3561;SDS011;1795;52.074;4.754;2022-08-19T10:10:44;21.83;;;16.20;;
3561;SDS011;1795;52.074;4.754;2022-08-19T10:13:14;25.63;;;17.52;;
3561;SDS011;1795;52.074;4.754;2022-08-19T10:15:43;20.73;;;14.90;;
3561;SDS011;1795;52.074;4.754;2022-08-19T10:18:13;23.00;;;14.30;;
3561;SDS011;1795;52.074;4.754;2022-08-19T10:20:44;19.73;;;13.23;;
3561;SDS011;1795;52.074;4.754;2022-08-19T10:23:18;19.10;;;12.60;;
3561;SDS011;1795;52.074;4.754;2022-08-19T10:25:48;18.30;;;12.43;;
3561;SDS011;1795;52.074;4.754;2022-08-19T10:28:17;19.65;;;12.10;;
3561;SDS011;1795;52.074;4.754;2022-08-19T10:30:45;21.52;;;13.15;;
3561;SDS011;1795;52.074;4.754;2022-08-19T10:33:14;23.63;;;12.20;;
3561;SDS011;1795;52.074;4.754;2022-08-19T10:36:03;16.50;;;12.00;;
3561;SDS011;1795;52.074;4.754;2022-08-19T10:38:33;14.50;;;11.60;;
3561;SDS011;1795;52.074;4.754;2022-08-19T10:41:10;22.60;;;11.75;;
3561;SDS011;1795;52.074;4.754;2022-08-19T10:43:39;16.35;;;10.93;;
3561;SDS011;1795;52.074;4.754;2022-08-19T10:46:09;14.40;;;9.90;;
3561;SDS011;1795;52.074;4.754;2022-08-19T10:48:42;16.35;;;9.30;;
3561;SDS011;1795;52.074;4.754;2022-08-19T10:51:11;9.98;;;7.93;;
3561;SDS011;1795;52.074;4.754;2022-08-19T10:53:57;9.77;;;7.30;;
3561;SDS011;1795;52.074;4.754;2022-08-19T10:56:27;12.45;;;6.72;;
3561;SDS011;1795;52.074;4.754;2022-08-19T10:59:13;11.73;;;6.90;;
3561;SDS011;1795;52.074;4.754;2022-08-19T11:01:42;10.30;;;6.40;;
3561;SDS011;1795;52.074;4.754;2022-08-19T11:04:12;8.95;;;6.20;;
3561;SDS011;1795;52.074;4.754;2022-08-19T11:06:44;8.97;;;5.77;;
3561;SDS011;1795;52.074;4.754;2022-08-19T11:09:13;8.30;;;5.78;;
3561;SDS011;1795;52.074;4.754;2022-08-19T11:11:43;9.65;;;5.22;;
3561;SDS011;1795;52.074;4.754;2022-08-19T11:14:15;6.10;;;5.50;;
3561;SDS011;1795;52.074;4.754;2022-08-19T11:16:46;7.15;;;5.20;;
3561;SDS011;1795;52.074;4.754;2022-08-19T11:19:15;11.63;;;5.40;;
3561;SDS011;1795;52.074;4.754;2022-08-19T11:21:46;8.43;;;5.15;;
3561;SDS011;1795;52.074;4.754;2022-08-19T11:24:16;8.50;;;5.25;;
3561;SDS011;1795;52.074;4.754;2022-08-19T11:26:48;8.43;;;5.05;;
3561;SDS011;1795;52.074;4.754;2022-08-19T11:29:20;12.13;;;5.35;;
3561;SDS011;1795;52.074;4.754;2022-08-19T11:31:51;8.93;;;4.75;;
3561;SDS011;1795;52.074;4.754;2022-08-19T11:34:21;7.85;;;4.50;;
3561;SDS011;1795;52.074;4.754;2022-08-19T11:36:53;10.02;;;4.20;;
3561;SDS011;1795;52.074;4.754;2022-08-19T11:39:24;7.65;;;4.45;;
3561;SDS011;1795;52.074;4.754;2022-08-19T11:41:55;12.00;;;4.00;;
3561;SDS011;1795;52.074;4.754;2022-08-19T11:44:26;6.43;;;3.15;;
3561;SDS011;1795;52.074;4.754;2022-08-19T11:46:56;5.20;;;3.10;;
3561;SDS011;1795;52.074;4.754;2022-08-19T11:49:34;4.93;;;3.30;;
3561;SDS011;1795;52.074;4.754;2022-08-19T11:52:02;4.97;;;3.90;;
3561;SDS011;1795;52.074;4.754;2022-08-19T11:54:30;4.35;;;3.05;;
3561;SDS011;1795;52.074;4.754;2022-08-19T11:57:00;6.67;;;2.80;;
3561;SDS011;1795;52.074;4.754;2022-08-19T11:59:29;5.15;;;2.60;;
3561;SDS011;1795;52.074;4.754;2022-08-19T12:01:57;6.10;;;2.60;;
3561;SDS011;1795;52.074;4.754;2022-08-19T12:04:25;5.40;;;2.90;;
3561;SDS011;1795;52.074;4.754;2022-08-19T12:06:53;5.53;;;2.70;;
3561;SDS011;1795;52.074;4.754;2022-08-19T12:09:21;6.40;;;2.90;;
3561;SDS011;1795;52.074;4.754;2022-08-19T12:11:49;7.43;;;2.50;;
3561;SDS011;1795;52.074;4.754;2022-08-19T12:14:19;4.05;;;1.90;;
3561;SDS011;1795;52.074;4.754;2022-08-19T12:16:47;3.25;;;2.10;;
3561;SDS011;1795;52.074;4.754;2022-08-19T12:19:17;3.40;;;2.30;;
3561;SDS011;1795;52.074;4.754;2022-08-19T12:21:47;4.53;;;2.00;;
3561;SDS011;1795;52.074;4.754;2022-08-19T12:24:16;2.83;;;1.80;;
3561;SDS011;1795;52.074;4.754;2022-08-19T12:26:49;2.60;;;1.80;;
3561;SDS011;1795;52.074;4.754;2022-08-19T12:29:20;3.03;;;1.90;;
3561;SDS011;1795;52.074;4.754;2022-08-19T12:31:55;4.72;;;2.00;;
3561;SDS011;1795;52.074;4.754;2022-08-19T12:34:29;2.60;;;2.00;;
3561;SDS011;1795;52.074;4.754;2022-08-19T12:36:58;2.80;;;1.50;;
3561;SDS011;1795;52.074;4.754;2022-08-19T12:39:28;3.13;;;1.50;;
3561;SDS011;1795;52.074;4.754;2022-08-19T12:41:57;1.40;;;1.30;;
3561;SDS011;1795;52.074;4.754;2022-08-19T12:44:27;2.00;;;1.60;;
3561;SDS011;1795;52.074;4.754;2022-08-19T12:46:58;5.10;;;1.70;;
3561;SDS011;1795;52.074;4.754;2022-08-19T12:49:29;4.30;;;1.80;;
3561;SDS011;1795;52.074;4.754;2022-08-19T12:52:19;1.67;;;1.58;;
3561;SDS011;1795;52.074;4.754;2022-08-19T12:54:49;3.53;;;1.60;;
3561;SDS011;1795;52.074;4.754;2022-08-19T12:57:20;2.13;;;1.63;;
3561;SDS011;1795;52.074;4.754;2022-08-19T12:59:59;1.80;;;1.70;;
3561;SDS011;1795;52.074;4.754;2022-08-19T13:02:31;2.78;;;1.70;;
3561;SDS011;1795;52.074;4.754;2022-08-19T13:05:05;2.10;;;1.60;;
3561;SDS011;1795;52.074;4.754;2022-08-19T13:07:35;7.20;;;2.05;;
3561;SDS011;1795;52.074;4.754;2022-08-19T13:10:05;5.53;;;2.60;;
3561;SDS011;1795;52.074;4.754;2022-08-19T13:12:34;3.30;;;2.15;;
3561;SDS011;1795;52.074;4.754;2022-08-19T13:15:04;2.10;;;1.90;;
3561;SDS011;1795;52.074;4.754;2022-08-19T13:17:36;2.67;;;1.90;;
3561;SDS011;1795;52.074;4.754;2022-08-19T13:20:05;4.20;;;2.10;;
3561;SDS011;1795;52.074;4.754;2022-08-19T13:22:34;3.60;;;2.00;;
3561;SDS011;1795;52.074;4.754;2022-08-19T13:25:03;1.90;;;1.42;;
3561;SDS011;1795;52.074;4.754;2022-08-19T13:27:31;4.32;;;2.30;;
3561;SDS011;1795;52.074;4.754;2022-08-19T13:29:59;2.17;;;1.98;;
3561;SDS011;1795;52.074;4.754;2022-08-19T13:32:46;2.80;;;1.63;;
3561;SDS011;1795;52.074;4.754;2022-08-19T13:35:32;2.13;;;1.67;;
3561;SDS011;1795;52.074;4.754;2022-08-19T13:38:00;2.17;;;1.73;;
3561;SDS011;1795;52.074;4.754;2022-08-19T13:40:37;3.08;;;1.70;;
3561;SDS011;1795;52.074;4.754;2022-08-19T13:43:07;4.13;;;1.85;;
3561;SDS011;1795;52.074;4.754;2022-08-19T13:45:47;1.77;;;1.65;;
3561;SDS011;1795;52.074;4.754;2022-08-19T13:48:18;2.70;;;1.88;;
3561;SDS011;1795;52.074;4.754;2022-08-19T13:50:46;3.47;;;1.90;;
3561;SDS011;1795;52.074;4.754;2022-08-19T13:53:14;2.17;;;1.70;;
3561;SDS011;1795;52.074;4.754;2022-08-19T13:55:43;3.47;;;1.90;;
3561;SDS011;1795;52.074;4.754;2022-08-19T13:58:11;2.27;;;1.90;;
3561;SDS011;1795;52.074;4.754;2022-08-19T14:00:40;4.18;;;1.77;;
3561;SDS011;1795;52.074;4.754;2022-08-19T14:03:10;1.60;;;1.50;;
3561;SDS011;1795;52.074;4.754;2022-08-19T14:05:39;1.70;;;1.60;;
3561;SDS011;1795;52.074;4.754;2022-08-19T14:08:07;1.95;;;1.50;;
3561;SDS011;1795;52.074;4.754;2022-08-19T14:10:35;3.40;;;1.60;;
3561;SDS011;1795;52.074;4.754;2022-08-19T14:13:03;3.05;;;1.77;;
3561;SDS011;1795;52.074;4.754;2022-08-19T14:15:31;4.90;;;1.90;;
3561;SDS011;1795;52.074;4.754;2022-08-19T14:17:59;2.60;;;2.00;;
3561;SDS011;1795;52.074;4.754;2022-08-19T14:20:28;2.22;;;2.03;;
3561;SDS011;1795;52.074;4.754;2022-08-19T14:22:57;3.60;;;2.00;;
3561;SDS011;1795;52.074;4.754;2022-08-19T14:25:26;3.70;;;1.90;;
3561;SDS011;1795;52.074;4.754;2022-08-19T14:27:55;2.70;;;1.60;;
3561;SDS011;1795;52.074;4.754;2022-08-19T14:30:25;3.80;;;2.20;;
3561;SDS011;1795;52.074;4.754;2022-08-19T14:32:54;3.42;;;2.30;;
3561;SDS011;1795;52.074;4.754;2022-08-19T14:35:23;2.70;;;2.50;;
3561;SDS011;1795;52.074;4.754;2022-08-19T14:37:51;3.45;;;2.85;;
3561;SDS011;1795;52.074;4.754;2022-08-19T14:40:24;5.80;;;3.90;;
3561;SDS011;1795;52.074;4.754;2022-08-19T14:42:54;3.80;;;3.50;;
3561;SDS011;1795;52.074;4.754;2022-08-19T14:45:25;5.03;;;3.80;;
3561;SDS011;1795;52.074;4.754;2022-08-19T14:47:54;5.18;;;4.68;;
3561;SDS011;1795;52.074;4.754;2022-08-19T14:50:22;5.53;;;4.50;;
3561;SDS011;1795;52.074;4.754;2022-08-19T14:52:56;5.85;;;4.50;;
3561;SDS011;1795;52.074;4.754;2022-08-19T14:55:27;5.80;;;4.27;;
3561;SDS011;1795;52.074;4.754;2022-08-19T14:57:55;7.70;;;4.47;;
3561;SDS011;1795;52.074;4.754;2022-08-19T15:00:25;4.45;;;3.90;;
3561;SDS011;1795;52.074;4.754;2022-08-19T15:02:53;3.22;;;2.92;;
3561;SDS011;1795;52.074;4.754;2022-08-19T15:05:21;2.80;;;2.60;;
3561;SDS011;1795;52.074;4.754;2022-08-19T15:07:49;3.67;;;3.30;;
3561;SDS011;1795;52.074;4.754;2022-08-19T15:10:17;4.20;;;3.50;;
3561;SDS011;1795;52.074;4.754;2022-08-19T15:12:47;4.88;;;2.90;;
3561;SDS011;1795;52.074;4.754;2022-08-19T15:15:17;3.60;;;2.55;;
3561;SDS011;1795;52.074;4.754;2022-08-19T15:17:45;2.85;;;2.65;;
3561;SDS011;1795;52.074;4.754;2022-08-19T15:20:14;3.50;;;2.40;;
3561;SDS011;1795;52.074;4.754;2022-08-19T15:22:44;2.70;;;2.30;;
3561;SDS011;1795;52.074;4.754;2022-08-19T15:25:13;2.08;;;1.88;;